• Join FlightAware (Why Join?)
  • Login
  • US Flag 
01:46AM EDT


 

Airport Tracker/Info


-or-


 

Live Flight TrackerFlight Track Log ✈ N9576M ✈ 20-Aug-2013 ✈ KMKG - C77

Flight Track Log - Related Links

Times and Time Zones

All times are in EDT time to prevent confusion due to time zone crossing. See the N9576M flight status page for this flight to view local times or setup timezone preferences in your user account.

Time Position Orientation Groundspeed Altitude Reporting Facility
EDT Latitude Longitude Course Direction KTS MPH feet Rate Location/Type
03:21PM 43.1197 -86.4311 247° West 83 96 7,000  Level Chicago Center
03:22PM 43.1106 -86.4597 246° West 82 94 7,700 600 Climbing Chicago Center
03:23PM 43.1017 -86.4919 249° West 88 101 8,300 540 Climbing Chicago Center
03:24PM 43.0919 -86.5281 250° West 100 115 8,900 480 Climbing Chicago Center
03:25PM 43.0820 -86.5112 247° West  Level Estimated
03:25PM 43.0822 -86.5642 250° West 101 116 9,400  Level Chicago Center
03:26PM 43.0676 -86.5571 247° West  Level Estimated
03:26PM 43.0683 -86.6167 250° West 121 139 9,600  Level Chicago Center
03:27PM 43.0517 -86.6658 245° Southwest 141 162 9,400 -120 Descending Chicago Center
03:28PM 43.0347 -86.7144 245° Southwest 144 166 9,400  Level Chicago Center
03:29PM 43.0200 -86.7622 247° West 139 160 9,400  Level Chicago Center
03:30PM 43.0028 -86.8094 244° Southwest 139 160 9,400  Level Chicago Center
03:31PM 42.9856 -86.8686 248° West 140 161 9,500  Climbing Chicago Center
03:32PM 42.9719 -86.9175 249° West 139 160 9,500  Level Chicago Center
03:33PM 42.9564 -86.9656 246° West 140 161 9,500  Level Chicago Center
03:34PM 42.9406 -87.0131 246° West 138 159 9,500  Level Chicago Center
03:35PM 42.9258 -87.0611 247° West 138 159 9,600  Climbing Chicago Center
03:36PM 42.9086 -87.1075 243° Southwest 138 159 9,500 -60 Descending Chicago Center
03:37PM 42.8892 -87.1653 245° Southwest 140 161 9,500  Level Chicago Center
03:38PM 42.8744 -87.2139 248° West 140 161 9,500  Level Chicago Center
03:39PM 42.8586 -87.2617 246° West 139 160 9,500  Level Chicago Center
03:40PM 42.8419 -87.3108 245° Southwest 142 163 9,500  Level Chicago Center
03:41PM 42.8244 -87.3589 244° Southwest 143 165 9,500  Level Chicago Center
03:42PM 42.8050 -87.4125 244° Southwest 140 161 9,500  Level Chicago Center
03:43PM 42.7881 -87.4614 245° Southwest 142 163 9,500  Level Chicago Center
03:44PM 42.7764 -87.5125 253° West 142 163 9,500  Level Chicago Center
03:45PM 42.7619 -87.5614 248° West 140 161 9,500  Level Chicago Center
03:46PM 42.7433 -87.6181 246° West 140 161 9,500  Level Chicago Center
03:48PM 42.7267 -87.6681 246° West 143 165 9,500  Level Chicago Center
03:49PM 42.7122 -87.7153 247° West 138 159 9,500 -60 Level Chicago Center
03:50PM 42.6956 -87.7653 246° West 142 163 9,400 -60 Descending Chicago Center
03:51PM 42.6781 -87.8139 244° Southwest 142 163 9,400  Level Chicago Center
03:52PM 42.6572 -87.8703 243° Southwest 143 165 9,500 -60 Climbing Chicago Center
03:53PM 42.6400 -87.9156 243° Southwest 138 159 9,300 -480 Descending Chicago Center
03:54PM 42.6156 -87.9650 236° Southwest 154 177 8,600 -960 Descending Chicago Center
03:55PM 42.5878 -88.0133 232° Southwest 160 184 7,400 -1,020 Descending Chicago Center
03:56PM 42.5728 -88.0678 250° West 154 177 6,500 -960 Descending Chicago Center
03:57PM 42.5681 -88.1269 264° West 155 178 5,500 -960 Descending Chicago Center